Terminal Aerodrome Forecast
Issued by NWS

Current Version | Previous Version | Text Only | Print | Product List | Glossary Off
Versions: 1 2 3 4 5 6 7 8 9 10 11 12 13 14 15 16 17 18 19 20

768
FTUS41 KILN 171137
TAFLUK
TAF
KLUK 171137Z 1712/1812 20002KT P6SM BKN250
     FM171500 20004KT P6SM BKN070
     FM171900 20004KT P6SM VCSH SCT020 OVC050
      TEMPO 1720/1722 -RA BKN020
     FM172300 19004KT P6SM OVC030
     FM180400 00000KT P6SM OVC020
     FM180900 21004KT P6SM SCT010 OVC015=

USA.gov is the U.S. government's official web portal to all federal, state and local government web resources and services.